Tuesday, February 20, 2018, 10:28 AM EST
Back to Local

KBID, Block Island, Block Island State Airport

Location: Block Island, RI, United States Lat: 41.167
Local Time: 10:28 AM EST (15:28 GMT) Lon: -71.567
Time Zone: US/Eastern Elev: 108 ft

Show me the last for .
Show Decoded

2018-02-20 09:56 METAR KBID 201456Z AUTO 24011KT 1/2SM -RA FG OVC003 07/07 A3035 RMK AO2 SLP281
                 P0000 60000 T00720072 53001 =
2018-02-20 09:45 METAR KBID 201445Z AUTO 22013KT 1/2SM -RA FG OVC003 07/07 A3034 RMK AO2 P0000 =
2018-02-20 09:19 METAR KBID 201419Z AUTO 23013KT 1/4SM -RA FG OVC003 07/07 A3034 RMK AO2 P0000 =
2018-02-20 08:56 METAR KBID 201356Z AUTO 22014KT 1/2SM -RA FG OVC003 07/07 A3034 RMK AO2 SLP277
                 P0000 T00720072 =
2018-02-20 08:51 METAR KBID 201351Z AUTO 22013KT 1/2SM -RA FG OVC003 07/07 A3033 RMK AO2 P0000 =
2018-02-20 07:56 METAR KBID 201256Z AUTO 22012KT 1/4SM -RA FG OVC003 07/07 A3034 RMK AO2 SLP280
                 P0000 T00720072 =
2018-02-20 06:56 METAR KBID 201156Z AUTO 22009KT 1/4SM -RA FG OVC003 07/07 A3033 RMK AO2 SLP277
                 P0000 60000 7//// T00720072 10089 20072 53009 =
2018-02-20 06:32 METAR KBID 201132Z AUTO 23010KT 1/4SM -RA FG OVC003 07/07 A3033 RMK AO2 P0000 =
2018-02-20 05:56 METAR KBID 201056Z AUTO 22010KT 3/4SM -RA BR OVC003 07/07 A3032 RMK AO2 SLP272
                 P0000 T00720072 =
2018-02-20 05:15 METAR KBID 201015Z AUTO 22012KT 3/4SM -RA BR OVC003 07/07 A3032 RMK AO2 P0000 =
2018-02-20 04:56 METAR KBID 200956Z AUTO 22012KT 1/2SM -RA FG OVC003 07/07 A3032 RMK AO2 SLP271
                 P0000 T00720072 =
2018-02-20 03:56 METAR KBID 200856Z AUTO 22013KT 1/2SM -RA FG OVC003 08/08 A3031 RMK AO2 SLP267
                 P0000 60000 T00780078 56007 =
2018-02-20 02:56 METAR KBID 200756Z AUTO 23012KT 1/2SM -RA FG OVC003 08/08 A3031 RMK AO2 SLP268
                 P0000 T00830083 =
2018-02-20 02:37 METAR KBID 200737Z AUTO 23011KT 1/2SM -RA FG OVC003 08/08 A3031 RMK AO2 P0000 =
2018-02-20 02:27 METAR KBID 200727Z AUTO 22012KT 3/4SM -RA BR OVC003 08/08 A3031 RMK AO2 P0000 =
2018-02-20 02:20 METAR KBID 200720Z AUTO 22014G18KT 1/2SM -RA FG OVC003 08/08 A3031 RMK AO2 P0000
                 =
2018-02-20 02:09 METAR KBID 200709Z AUTO 23010KT 3/4SM -RA BR OVC003 08/08 A3032 RMK AO2 P0000 =
2018-02-20 01:56 METAR KBID 200656Z AUTO 24010KT 1SM -RA BR OVC003 08/08 A3032 RMK AO2 RAB50
                 SLP272 P0000 T00830083 =
2018-02-20 01:48 METAR KBID 200648Z AUTO 22011KT 1 1/4SM BR OVC003 08/08 A3032 RMK AO2 =
2018-02-20 01:41 METAR KBID 200641Z AUTO 22011KT 2SM BR OVC003 08/08 A3033 RMK AO2 =
2018-02-20 01:33 METAR KBID 200633Z AUTO 22012KT 3SM BR BKN003 OVC006 08/08 A3032 RMK AO2 CIG
                 002V006 =
2018-02-20 00:56 METAR KBID 200556Z AUTO 21013KT 7SM OVC006 08/08 A3033 RMK AO2 RAB14E32 CIG
                 003V009 SLP274 P0000 60002 T00830083 10083 20072 58016 =
2018-02-20 00:31 METAR KBID 200531Z AUTO 24006KT 5SM -RA BR OVC004 08/08 A3034 RMK AO2 RAB14 CIG
                 003V007 P0000 =
2018-02-20 00:23 METAR KBID 200523Z AUTO 25006KT 2 1/2SM -RA BR BKN004 OVC010 07/07 A3035 RMK AO2
                 RAB14 CIG 003V007 P0000 =
2018-02-20 00:13 METAR KBID 200513Z AUTO 27006KT 2 1/2SM BR OVC008 07/07 A3036 RMK AO2 CIG
                 004V010 =
2018-02-19 23:56 METAR KBID 200456Z AUTO 24008KT 10SM OVC010 08/08 A3036 RMK AO2 RAE56 CIG
                 009V014 SLP285 P0001 T00830078 =
2018-02-19 23:39 METAR KBID 200439Z AUTO 22012KT 10SM -RA BKN012 OVC020 08/08 A3035 RMK AO2 P0001
                 =
2018-02-19 22:56 METAR KBID 200356Z AUTO 21013KT 10SM -RA OVC018 08/08 A3036 RMK AO2 SLP285 P0000
                 T00830078 400891017 =
2018-02-19 21:56 METAR KBID 200256Z AUTO 21016G21KT 7SM -RA OVC022 08/08 A3037 RMK AO2 RAB09
                 SLP290 P0001 60001 T00830078 58004 =
2018-02-19 20:56 METAR KBID 200156Z AUTO 21014KT 10SM OVC027 08/07 A3038 RMK AO2 RAE21 SLP292
                 P0000 T00830072 =
2018-02-19 19:56 METAR KBID 200056Z AUTO 21013KT 10SM -RA BKN029 OVC036 08/07 A3038 RMK AO2
                 RAE06B32 SLP292 P0000 T00780067 =
2018-02-19 18:56 METAR KBID 192356Z AUTO 20012KT 10SM -RA SCT040 OVC050 08/07 A3039 RMK AO2 RAB09
                 SLP294 P0000 60000 T00780067 10089 20072 58012 =
2018-02-19 17:56 METAR KBID 192256Z AUTO 20009KT 10SM OVC038 08/06 A3040 RMK AO2 SLP298 T00780061
                 =
2018-02-19 16:56 METAR KBID 192156Z AUTO 21009KT 10SM OVC042 08/06 A3041 RMK AO2 SLP302 T00780061
                 =
2018-02-19 15:56 METAR KBID 192056Z AUTO 20008KT 10SM OVC050 08/06 A3042 RMK AO2 SLP305 T00780056
                 55020 =
2018-02-19 14:56 METAR KBID 191956Z AUTO 18008KT 10SM BKN050 BKN090 08/06 A3042 RMK AO2 SLP305
                 T00780056 =
2018-02-19 13:56 METAR KBID 191856Z AUTO 19011KT 10SM SCT110 09/05 A3043 RMK AO2 SLP310 T00890050
                 =
2018-02-19 12:56 METAR KBID 191756Z AUTO 19009KT 10SM FEW034 09/04 A3048 RMK AO2 SLP325 6////
                 T00890044 10089 20033 56026 =
2018-02-19 11:56 METAR KBID 191656Z AUTO 18010KT 10SM BKN035 07/04 A3050 RMK AO2 SLP333 T00720044
                 =
2018-02-19 10:56 METAR KBID 191556Z AUTO 17012KT 10SM CLR 08/04 A3052 RMK AO2 SLP340 T00780039 =

Support USWX by starting your Amazon purchase here.